createdAt,value
2018-12-15T00:02:04.768Z,101382.78
2018-12-15T00:04:32.748Z,101379.66
2018-12-15T00:07:00.677Z,101381.39
2018-12-15T00:09:28.687Z,101386.13
2018-12-15T00:11:56.627Z,101387.96
2018-12-15T00:14:24.677Z,101392.41
2018-12-15T00:16:52.644Z,101390.34
2018-12-15T00:19:20.709Z,101393.28
2018-12-15T00:21:48.763Z,101396.27
2018-12-15T00:24:16.707Z,101392.23
2018-12-15T00:26:47.883Z,101393.61
2018-12-15T00:29:16.663Z,101392.69
2018-12-15T00:31:44.625Z,101397.95
2018-12-15T00:34:12.537Z,101394.91
2018-12-15T00:36:43.817Z,101401.34
2018-12-15T00:39:11.719Z,101398.63
2018-12-15T00:41:39.822Z,101402.21
2018-12-15T00:44:12.137Z,101403.88
2018-12-15T00:46:40.204Z,101402.94
2018-12-15T00:49:08.198Z,101405.53
2018-12-15T00:51:36.197Z,101401.52
2018-12-15T00:54:04.228Z,101410.42
2018-12-15T00:56:32.245Z,101406.09
2018-12-15T00:59:02.261Z,101409.95
2018-12-15T01:01:30.238Z,101406.82
2018-12-15T01:03:58.272Z,101405.45
2018-12-15T01:06:26.302Z,101414.58
2018-12-15T01:08:54.243Z,101414.28
2018-12-15T01:11:22.358Z,101414.00
2018-12-15T01:13:50.353Z,101413.77
2018-12-15T01:16:18.388Z,101423.83
2018-12-15T01:18:46.332Z,101419.45
2018-12-15T01:21:14.423Z,101416.49
2018-12-15T01:23:42.633Z,101417.18
2018-12-15T01:26:10.583Z,101418.33
2018-12-15T01:28:38.588Z,101425.12
2018-12-15T01:31:06.623Z,101427.70
2018-12-15T01:33:34.578Z,101434.31
2018-12-15T01:36:02.576Z,101439.05
2018-12-15T01:38:30.525Z,101446.27
2018-12-15T01:40:58.970Z,101446.57
2018-12-15T01:43:26.904Z,101444.95
2018-12-15T01:45:54.964Z,101436.44
2018-12-15T01:48:23.004Z,101443.35
2018-12-15T01:50:50.917Z,101444.58
2018-12-15T01:53:18.974Z,101442.30
2018-12-15T01:55:47.744Z,101444.50
2018-12-15T01:58:16.756Z,101446.57
2018-12-15T02:00:44.919Z,101450.05
2018-12-15T02:03:12.954Z,101450.05
2018-12-15T02:05:40.939Z,101442.30
2018-12-15T02:08:09.039Z,101450.59
2018-12-15T02:10:36.999Z,101440.70
2018-12-15T02:13:04.964Z,101441.92
2018-12-15T02:15:32.924Z,101441.00
2018-12-15T02:18:00.954Z,101441.84
2018-12-15T02:20:28.927Z,101443.61
2018-12-15T02:22:56.938Z,101444.44
2018-12-15T02:25:24.953Z,101446.50
2018-12-15T02:27:53.023Z,101440.41
2018-12-15T02:30:21.090Z,101435.14
2018-12-15T02:32:49.079Z,101443.44
2018-12-15T02:35:17.024Z,101434.83
2018-12-15T02:37:45.066Z,101434.85
2018-12-15T02:40:13.019Z,101440.76
2018-12-15T02:42:41.054Z,101436.73
2018-12-15T02:45:09.022Z,101438.62
2018-12-15T02:47:41.564Z,101437.94
2018-12-15T02:50:07.119Z,101441.28
2018-12-15T02:52:35.246Z,101430.20
2018-12-15T02:55:03.239Z,101431.72
2018-12-15T02:57:31.224Z,101426.16
2018-12-15T02:59:59.275Z,101431.25
2018-12-15T03:02:27.313Z,101422.66
2018-12-15T03:04:55.299Z,101418.84
2018-12-15T03:07:23.311Z,101422.64
2018-12-15T03:09:51.334Z,101405.12
2018-12-15T03:12:19.334Z,101409.85
2018-12-15T03:14:47.317Z,101421.27
2018-12-15T03:17:15.350Z,101420.44
2018-12-15T03:19:43.384Z,101417.84
2018-12-15T03:22:11.379Z,101416.42
2018-12-15T03:24:39.355Z,101427.30
2018-12-15T03:27:07.273Z,101413.41
2018-12-15T03:29:35.284Z,101420.36
2018-12-15T03:32:03.182Z,101411.62
2018-12-15T03:34:31.157Z,101417.69
2018-12-15T03:36:59.108Z,101414.03
2018-12-15T03:39:27.134Z,101418.09
2018-12-15T03:41:55.093Z,101420.73
2018-12-15T03:44:23.120Z,101416.87
2018-12-15T03:46:51.070Z,101407.81
2018-12-15T03:49:19.014Z,101423.77
2018-12-15T03:51:46.984Z,101405.66
2018-12-15T03:54:14.939Z,101423.72
2018-12-15T03:56:42.850Z,101415.12
2018-12-15T03:59:10.862Z,101424.52
2018-12-15T04:01:38.803Z,101414.63
2018-12-15T04:04:06.725Z,101420.36
2018-12-15T04:06:34.672Z,101410.91
2018-12-15T04:09:02.799Z,101424.34
2018-12-15T04:11:30.774Z,101430.23
2018-12-15T04:13:58.757Z,101419.73
2018-12-15T04:16:26.669Z,101435.36
2018-12-15T04:18:54.626Z,101429.86
2018-12-15T04:21:22.672Z,101427.14
2018-12-15T04:23:50.619Z,101421.34
2018-12-15T04:26:18.545Z,101427.57
2018-12-15T04:28:46.469Z,101417.89
2018-12-15T04:31:14.449Z,101425.66
2018-12-15T04:33:42.445Z,101428.89
2018-12-15T04:36:17.234Z,101427.05
2018-12-15T04:38:45.221Z,101417.54
2018-12-15T04:41:13.196Z,101430.31
2018-12-15T04:43:41.138Z,101416.25
2018-12-15T04:46:10.706Z,101419.27
2018-12-15T04:48:38.656Z,101420.75
2018-12-15T04:51:06.619Z,101410.28
2018-12-15T04:53:34.556Z,101415.33
2018-12-15T04:56:02.529Z,101412.28
2018-12-15T04:58:30.810Z,101416.52
2018-12-15T05:00:58.981Z,101414.85
2018-12-15T05:03:26.875Z,101418.44
2018-12-15T05:05:54.869Z,101413.53
2018-12-15T05:08:22.784Z,101420.63
2018-12-15T05:10:50.770Z,101426.20
2018-12-15T05:13:18.690Z,101414.20
2018-12-15T05:15:46.655Z,101420.19
2018-12-15T05:18:18.202Z,101417.42
2018-12-15T05:20:44.611Z,101421.05
2018-12-15T05:23:12.544Z,101414.48
2018-12-15T05:25:40.500Z,101409.38
2018-12-15T05:28:08.461Z,101409.45
2018-12-15T05:30:36.459Z,101415.41
2018-12-15T05:33:04.364Z,101421.10
2018-12-15T05:35:32.290Z,101430.11
2018-12-15T05:38:00.174Z,101417.61
2018-12-15T05:40:28.189Z,101428.39
2018-12-15T05:42:56.155Z,101421.40
2018-12-15T05:45:24.109Z,101431.16
2018-12-15T05:47:52.071Z,101420.67
2018-12-15T05:50:20.095Z,101418.75
2018-12-15T05:52:47.975Z,101417.17
2018-12-15T05:55:15.945Z,101408.93
2018-12-15T05:57:43.856Z,101409.70
2018-12-15T06:00:11.965Z,101415.33
2018-12-15T06:02:40.130Z,101417.06
2018-12-15T06:05:08.804Z,101421.77
2018-12-15T06:07:36.710Z,101428.44
2018-12-15T06:10:04.975Z,101421.34
2018-12-15T06:12:32.930Z,101431.38
2018-12-15T06:15:00.890Z,101429.69
2018-12-15T06:17:28.872Z,101433.30
2018-12-15T06:19:56.820Z,101427.97
2018-12-15T06:22:24.795Z,101417.54
2018-12-15T06:24:52.735Z,101435.41
2018-12-15T06:27:20.702Z,101431.55
2018-12-15T06:29:48.715Z,101427.20
2018-12-15T06:32:16.775Z,101424.77
2018-12-15T06:34:44.710Z,101424.46
2018-12-15T06:37:12.682Z,101422.05
2018-12-15T06:39:40.590Z,101416.67
2018-12-15T06:42:08.586Z,101423.34
2018-12-15T06:44:36.475Z,101422.79
2018-12-15T06:47:04.484Z,101415.30
2018-12-15T06:49:32.675Z,101413.27
2018-12-15T06:52:00.654Z,101408.91
2018-12-15T06:54:28.545Z,101417.46
2018-12-15T06:56:56.535Z,101419.83
2018-12-15T06:59:24.475Z,101420.55
2018-12-15T07:01:52.455Z,101422.24
2018-12-15T07:04:20.360Z,101415.45
2018-12-15T07:06:48.370Z,101423.64
2018-12-15T07:09:16.320Z,101416.25
2018-12-15T07:11:44.309Z,101429.16
2018-12-15T07:14:12.280Z,101416.62
2018-12-15T07:16:40.220Z,101422.72
2018-12-15T07:19:08.114Z,101426.05
2018-12-15T07:21:36.049Z,101433.13
2018-12-15T07:24:03.954Z,101430.09
2018-12-15T07:26:32.059Z,101433.20
2018-12-15T07:28:59.966Z,101438.00
2018-12-15T07:31:27.925Z,101436.28
2018-12-15T07:33:55.799Z,101446.18
2018-12-15T07:36:23.774Z,101437.20
2018-12-15T07:38:51.734Z,101427.38
2018-12-15T07:41:19.779Z,101413.22
2018-12-15T07:43:47.709Z,101413.29
2018-12-15T07:46:18.959Z,101408.52
2018-12-15T07:48:51.273Z,101426.05
2018-12-15T07:51:16.929Z,101425.25
2018-12-15T07:53:44.919Z,101420.60
2018-12-15T07:56:12.929Z,101416.27
2018-12-15T07:58:40.944Z,101424.93
2018-12-15T08:01:11.881Z,101429.56
2018-12-15T08:03:39.859Z,101426.08
2018-12-15T08:06:07.799Z,101417.49
2018-12-15T08:08:35.789Z,101425.80
2018-12-15T08:11:09.399Z,101425.53
2018-12-15T08:13:39.420Z,101429.02
2018-12-15T08:16:07.332Z,101431.03
2018-12-15T08:18:35.340Z,101440.31
2018-12-15T08:21:03.325Z,101438.09
2018-12-15T08:23:31.369Z,101439.79
2018-12-15T08:25:59.519Z,101444.17
2018-12-15T08:28:27.554Z,101438.09
2018-12-15T08:30:55.489Z,101441.13
2018-12-15T08:33:23.520Z,101447.13
2018-12-15T08:35:51.474Z,101446.18
2018-12-15T08:38:20.424Z,101444.32
2018-12-15T08:40:48.454Z,101430.09
2018-12-15T08:43:16.389Z,101438.94
2018-12-15T08:45:44.419Z,101439.22
2018-12-15T08:48:12.384Z,101442.28
2018-12-15T08:50:40.483Z,101437.78
2018-12-15T08:53:08.489Z,101435.54
2018-12-15T08:55:36.444Z,101428.98
2018-12-15T08:58:05.361Z,101431.20
2018-12-15T09:00:33.329Z,101420.77
2018-12-15T09:03:01.339Z,101418.42
2018-12-15T09:05:29.211Z,101426.81
2018-12-15T09:07:57.195Z,101421.62
2018-12-15T09:10:25.149Z,101426.87
2018-12-15T09:12:53.153Z,101417.84
2018-12-15T09:15:21.129Z,101424.30
2018-12-15T09:17:49.093Z,101424.67
2018-12-15T09:20:17.063Z,101432.88
2018-12-15T09:22:50.515Z,101430.52
2018-12-15T09:25:18.469Z,101437.50
2018-12-15T09:27:46.424Z,101432.19
2018-12-15T09:30:14.473Z,101427.48
2018-12-15T09:32:42.463Z,101441.62
2018-12-15T09:35:10.722Z,101428.83
2018-12-15T09:37:38.648Z,101435.67
2018-12-15T09:40:06.803Z,101443.27
2018-12-15T09:42:34.777Z,101445.34
2018-12-15T09:45:02.840Z,101449.66
2018-12-15T09:47:30.771Z,101443.21
2018-12-15T09:49:59.904Z,101436.44
2018-12-15T09:52:28.023Z,101442.07
2018-12-15T09:54:56.133Z,101445.56
2018-12-15T09:57:24.073Z,101433.28
2018-12-15T09:59:52.447Z,101429.79
2018-12-15T10:02:20.474Z,101429.95
2018-12-15T10:04:48.508Z,101434.83
2018-12-15T10:07:16.545Z,101431.52
2018-12-15T10:09:44.503Z,101432.98
2018-12-15T10:12:12.426Z,101431.34
2018-12-15T10:14:40.411Z,101424.50
2018-12-15T10:17:08.988Z,101430.90
2018-12-15T10:19:37.107Z,101422.78
2018-12-15T10:22:05.042Z,101419.34
2018-12-15T10:24:33.017Z,101418.53
2018-12-15T10:27:01.031Z,101416.31
2018-12-15T10:29:34.527Z,101406.22
2018-12-15T10:32:08.052Z,101404.18
2018-12-15T10:34:36.062Z,101405.19
2018-12-15T10:37:04.483Z,101392.92
2018-12-15T10:39:32.632Z,101404.72
2018-12-15T10:42:00.612Z,101405.92
2018-12-15T10:44:28.596Z,101408.14
2018-12-15T10:46:56.498Z,101400.77
2018-12-15T10:49:30.546Z,101394.83
2018-12-15T10:51:54.612Z,101376.37
2018-12-15T10:54:22.543Z,101384.20
2018-12-15T10:56:50.572Z,101383.16
2018-12-15T10:59:18.547Z,101378.20
2018-12-15T11:01:46.524Z,101381.16
2018-12-15T11:04:14.452Z,101376.37
2018-12-15T11:06:42.577Z,101371.27
2018-12-15T11:09:10.637Z,101358.12
2018-12-15T11:11:38.612Z,101347.68
2018-12-15T11:14:06.570Z,101345.37
2018-12-15T11:16:34.713Z,101342.18
2018-12-15T11:19:02.652Z,101343.48
2018-12-15T11:21:30.852Z,101353.21
2018-12-15T11:23:58.753Z,101334.89
2018-12-15T11:26:26.772Z,101335.91
2018-12-15T11:28:58.442Z,101323.56
2018-12-15T11:31:26.393Z,101330.22
2018-12-15T11:33:54.330Z,101317.78
2018-12-15T11:36:22.294Z,101317.93
2018-12-15T11:38:50.247Z,101325.37
2018-12-15T11:41:18.312Z,101329.44
2018-12-15T11:43:46.228Z,101312.56
2018-12-15T11:46:14.218Z,101316.45
2018-12-15T11:48:42.223Z,101309.52
2018-12-15T11:51:10.263Z,101302.44
2018-12-15T11:53:38.248Z,101293.80
2018-12-15T11:56:06.334Z,101302.77
2018-12-15T11:58:34.333Z,101285.75
2018-12-15T12:01:02.509Z,101288.95
2018-12-15T12:03:30.480Z,101283.47
2018-12-15T12:05:58.532Z,101295.33
2018-12-15T12:08:26.563Z,101285.87
2018-12-15T12:10:54.540Z,101286.95
2018-12-15T12:13:22.673Z,101281.72
2018-12-15T12:15:51.015Z,101274.85
2018-12-15T12:18:19.056Z,101278.46
2018-12-15T12:20:47.023Z,101268.47
2018-12-15T12:23:15.028Z,101273.08
2018-12-15T12:25:44.125Z,101254.49
2018-12-15T12:28:12.137Z,101262.89
2018-12-15T12:30:40.132Z,101256.54
2018-12-15T12:33:08.243Z,101247.23
2018-12-15T12:35:36.348Z,101242.59
2018-12-15T12:38:04.467Z,101241.18
2018-12-15T12:40:32.557Z,101236.30
2018-12-15T12:43:00.593Z,101235.28
2018-12-15T12:45:28.534Z,101235.84
2018-12-15T12:47:56.495Z,101235.09
2018-12-15T12:50:24.563Z,101240.34
2018-12-15T12:52:52.580Z,101237.95
2018-12-15T12:55:20.573Z,101237.59
2018-12-15T12:57:48.573Z,101234.42
2018-12-15T13:00:16.638Z,101231.90
2018-12-15T13:02:45.054Z,101227.66
2018-12-15T13:05:13.435Z,101224.55
2018-12-15T13:07:41.563Z,101236.00
2018-12-15T13:10:09.747Z,101234.02
2018-12-15T13:12:37.818Z,101228.35
2018-12-15T13:15:06.161Z,101234.31
2018-12-15T13:17:34.138Z,101240.28
2018-12-15T13:20:03.834Z,101236.09
2018-12-15T13:22:32.028Z,101240.45
2018-12-15T13:24:59.957Z,101238.20
2018-12-15T13:27:28.273Z,101227.12
2018-12-15T13:29:56.973Z,101232.63
2018-12-15T13:32:26.258Z,101222.99
2018-12-15T13:34:54.238Z,101223.74
2018-12-15T13:37:23.304Z,101232.23
2018-12-15T13:39:51.413Z,101236.42
2018-12-15T13:42:19.568Z,101222.60
2018-12-15T13:44:47.566Z,101227.92
2018-12-15T13:47:19.478Z,101222.63
2018-12-15T13:49:47.638Z,101225.85
2018-12-15T13:52:15.828Z,101233.74
2018-12-15T13:54:43.836Z,101208.12
2018-12-15T13:57:11.903Z,101221.36
2018-12-15T13:59:39.869Z,101224.13
2018-12-15T14:02:07.819Z,101217.30
2018-12-15T14:04:36.063Z,101215.31
2018-12-15T14:07:06.155Z,101219.50
2018-12-15T14:09:34.197Z,101205.65
2018-12-15T14:12:02.269Z,101212.96
2018-12-15T14:14:30.273Z,101207.39
2018-12-15T14:16:58.322Z,101211.67
2018-12-15T14:19:27.327Z,101210.07
2018-12-15T14:21:56.067Z,101198.36
2018-12-15T14:24:24.284Z,101203.06
2018-12-15T14:26:53.587Z,101201.80
2018-12-15T14:29:21.677Z,101203.91
2018-12-15T14:31:50.478Z,101198.76
2018-12-15T14:34:20.457Z,101201.62
2018-12-15T14:36:50.807Z,101199.66
2018-12-15T14:39:20.412Z,101203.06
2018-12-15T14:41:48.532Z,101190.22
2018-12-15T14:44:16.622Z,101189.06
2018-12-15T14:46:44.667Z,101200.92
2018-12-15T14:49:12.869Z,101196.81
2018-12-15T14:51:41.007Z,101176.30
2018-12-15T14:54:09.277Z,101179.59
2018-12-15T14:56:38.686Z,101170.20
2018-12-15T14:59:08.968Z,101182.39
2018-12-15T15:01:37.158Z,101172.32
2018-12-15T15:04:05.402Z,101177.18
2018-12-15T15:06:33.467Z,101172.37
2018-12-15T15:09:01.672Z,101167.15
2018-12-15T15:11:30.427Z,101172.28
2018-12-15T15:13:59.552Z,101177.23
2018-12-15T15:16:27.667Z,101165.86
2018-12-15T15:18:56.024Z,101163.23
2018-12-15T15:21:24.144Z,101153.23
2018-12-15T15:23:52.487Z,101156.10
2018-12-15T15:26:20.758Z,101170.19
2018-12-15T15:28:49.822Z,101161.44
2018-12-15T15:31:18.232Z,101148.72
2018-12-15T15:33:50.647Z,101145.01
2018-12-15T15:36:19.000Z,101138.81
2018-12-15T15:38:49.402Z,101139.81
2018-12-15T15:41:18.883Z,101140.23
2018-12-15T15:43:48.397Z,101139.06
2018-12-15T15:46:16.853Z,101136.19
2018-12-15T15:48:49.282Z,101131.05
2018-12-15T15:51:17.636Z,101122.91
2018-12-15T15:53:51.243Z,101115.91
2018-12-15T15:56:19.667Z,101121.09
2018-12-15T15:58:51.907Z,101115.91
2018-12-15T16:01:21.622Z,101111.11
2018-12-15T16:03:49.913Z,101102.98
2018-12-15T16:06:18.651Z,101104.94
2018-12-15T16:08:48.053Z,101085.83
2018-12-15T16:11:16.500Z,101095.94
2018-12-15T16:13:48.538Z,101098.07
2018-12-15T16:16:27.747Z,101076.00
2018-12-15T16:18:59.794Z,101077.74
2018-12-15T16:21:28.212Z,101075.26
2018-12-15T16:23:56.610Z,101075.70
2018-12-15T16:26:25.112Z,101090.55
2018-12-15T16:28:55.493Z,101071.24
2018-12-15T16:31:27.662Z,101071.27
2018-12-15T16:33:59.997Z,101062.08
2018-12-15T16:36:28.552Z,101058.33
2018-12-15T16:38:58.813Z,101056.09
2018-12-15T16:41:31.118Z,101062.38
2018-12-15T16:44:00.602Z,101053.34
2018-12-15T16:46:29.122Z,101049.12
2018-12-15T16:48:57.382Z,101052.84
2018-12-15T16:51:25.867Z,101047.95
2018-12-15T16:53:54.303Z,101053.22
2018-12-15T16:56:22.807Z,101054.16
2018-12-15T16:58:53.298Z,101054.75
2018-12-15T17:01:24.870Z,101050.87
2018-12-15T17:03:54.325Z,101050.50
2018-12-15T17:06:22.893Z,101045.32
2018-12-15T17:08:51.412Z,101035.25
2018-12-15T17:11:21.862Z,101032.34
2018-12-15T17:13:50.943Z,101037.23
2018-12-15T17:16:21.644Z,101041.17
2018-12-15T17:18:50.050Z,101038.28
2018-12-15T17:21:18.537Z,101027.89
2018-12-15T17:23:52.447Z,101019.63
2018-12-15T17:26:21.028Z,101015.69
2018-12-15T17:28:49.812Z,101018.48
2018-12-15T17:31:18.377Z,101006.73
2018-12-15T17:33:51.362Z,101003.23
2018-12-15T17:36:21.140Z,100999.44
2018-12-15T17:38:49.562Z,100996.39
2018-12-15T17:41:18.307Z,100996.78
2018-12-15T17:43:50.808Z,100993.38
2018-12-15T17:46:22.298Z,100988.65
2018-12-15T17:48:50.638Z,100983.73
2018-12-15T17:51:18.997Z,100981.48
2018-12-15T17:53:50.687Z,100981.98
2018-12-15T17:56:19.147Z,100976.02
2018-12-15T17:58:47.437Z,100982.69
2018-12-15T18:01:15.793Z,100975.77
2018-12-15T18:03:44.137Z,100974.48
2018-12-15T18:06:12.569Z,100968.33
2018-12-15T18:08:44.253Z,100966.58
2018-12-15T18:11:12.737Z,100953.16
2018-12-15T18:13:41.136Z,100952.72
2018-12-15T18:16:09.398Z,100941.79
2018-12-15T18:18:38.008Z,100944.67
2018-12-15T18:21:09.714Z,100937.67
2018-12-15T18:23:38.409Z,100930.95
2018-12-15T18:26:08.052Z,100921.83
2018-12-15T18:28:39.703Z,100919.33
2018-12-15T18:31:09.217Z,100920.69
2018-12-15T18:33:37.878Z,100927.21
2018-12-15T18:36:06.518Z,100919.34
2018-12-15T18:38:35.152Z,100903.71
2018-12-15T18:41:03.692Z,100894.84
2018-12-15T18:43:32.332Z,100895.21
2018-12-15T18:46:00.863Z,100897.19
2018-12-15T18:48:29.610Z,100893.73
2018-12-15T18:50:58.217Z,100888.47
2018-12-15T18:53:26.951Z,100885.05
2018-12-15T18:55:56.370Z,100884.87
2018-12-15T18:58:28.022Z,100884.97
2018-12-15T19:00:56.557Z,100883.04
2018-12-15T19:03:26.025Z,100873.17
2018-12-15T19:05:54.637Z,100870.94
2018-12-15T19:08:28.453Z,100858.20
2018-12-15T19:10:57.179Z,100874.97
2018-12-15T19:13:29.019Z,100852.59
2018-12-15T19:15:59.605Z,100857.39
2018-12-15T19:18:39.940Z,100850.47
2018-12-15T19:21:09.021Z,100850.05
2018-12-15T19:23:38.013Z,100850.64
2018-12-15T19:26:06.705Z,100855.73
2018-12-15T19:28:35.548Z,100847.17
2018-12-15T19:31:04.178Z,100844.77
2018-12-15T19:33:32.854Z,100834.45
2018-12-15T19:36:01.366Z,100835.00
2018-12-15T19:41:43.845Z,100816.28
2018-12-15T19:44:14.445Z,100815.76
2018-12-15T19:46:47.926Z,100807.94
2018-12-15T19:49:19.006Z,100809.02
2018-12-15T19:51:54.828Z,100821.02
2018-12-15T19:54:30.845Z,100809.10
2018-12-15T19:57:11.029Z,100807.75
2018-12-15T19:59:50.697Z,100803.02
2018-12-15T20:05:37.231Z,100798.87
2018-12-15T20:08:13.210Z,100787.58
2018-12-15T20:10:50.341Z,100782.34
2018-12-15T20:13:38.177Z,100779.84
2018-12-15T20:30:17.290Z,100737.75
2018-12-15T20:35:49.819Z,100732.06
2018-12-15T20:56:04.117Z,100677.61
2018-12-15T20:58:33.878Z,100666.58
2018-12-15T21:15:24.379Z,100681.84
2018-12-15T21:31:56.504Z,100652.31
2018-12-15T21:50:43.318Z,100643.48
2018-12-15T21:53:17.298Z,100642.56
2018-12-15T21:56:11.930Z,100642.95
2018-12-15T21:58:42.898Z,100638.31
2018-12-15T22:01:20.518Z,100639.73
2018-12-15T22:07:13.338Z,100617.91
2018-12-15T22:09:41.998Z,100615.03
2018-12-15T22:12:13.918Z,100609.98
2018-12-15T22:14:54.218Z,100609.52
2018-12-15T22:17:31.433Z,100596.98
2018-12-15T22:20:01.698Z,100597.71
2018-12-15T22:22:39.257Z,100586.20
2018-12-15T22:25:21.682Z,100590.13
2018-12-15T22:28:00.177Z,100579.10
2018-12-15T22:30:29.541Z,100562.02
2018-12-15T22:33:10.639Z,100556.84
2018-12-15T22:35:44.756Z,100545.00
2018-12-15T22:38:24.862Z,100530.55
2018-12-15T22:41:13.496Z,100543.14
2018-12-15T22:43:49.891Z,100524.16
2018-12-15T22:46:23.476Z,100517.75
2018-12-15T22:48:54.394Z,100506.96
2018-12-15T22:51:23.176Z,100501.80
2018-12-15T22:54:02.707Z,100509.54
2018-12-15T22:56:40.489Z,100495.39
2018-12-15T22:59:14.741Z,100488.69
2018-12-15T23:01:53.317Z,100496.93
2018-12-15T23:04:46.250Z,100484.25
2018-12-15T23:07:23.811Z,100485.36
2018-12-15T23:09:58.371Z,100473.67
2018-12-15T23:12:46.410Z,100479.06
2018-12-15T23:18:10.011Z,100466.34
2018-12-15T23:20:54.017Z,100465.84
2018-12-15T23:23:35.245Z,100461.98
2018-12-15T23:26:20.564Z,100465.75
2018-12-15T23:28:51.966Z,100450.80
2018-12-15T23:31:26.511Z,100443.78
2018-12-15T23:34:09.301Z,100442.00
2018-12-15T23:36:45.559Z,100438.62
2018-12-15T23:39:15.732Z,100426.13
2018-12-15T23:41:45.200Z,100429.73
2018-12-15T23:44:14.614Z,100424.06
2018-12-15T23:47:07.291Z,100422.32
2018-12-15T23:49:44.256Z,100406.77
2018-12-15T23:52:23.219Z,100390.95
2018-12-15T23:55:09.281Z,100383.09
2018-12-15T23:58:00.211Z,100378.90
